This is the latest recevied weather packets stored in our database for station/object KP3M-5. If no packets are shown the sender has not sent any weather packets the latest 10 day(s).
| Time | Temp. | Humidity | Pressure | Rain* | Wind** | Luminosity | Snow |
|---|---|---|---|---|---|---|---|
| 1787940304 | 30° C | 64% | 1024 hPa | - | - | - | - |
| 1787936704 | 29.44° C | 65% | 1024 hPa | - | - | - | - |
| 1787933104 | 28.33° C | 71% | 1024 hPa | - | - | - | - |
| 1787929504 | 28.33° C | 72% | 1024 hPa | - | - | - | - |
| 1787925913 | 27.78° C | 75% | 1024 hPa | - | - | - | - |
| 1787922304 | 26.11° C | 81% | 1024 hPa | - | - | - | - |
| 1787918704 | 26.11° C | 82% | 1024 hPa | - | - | - | - |
| 1787915103 | 23.89° C | 88% | 1024 hPa | - | - | - | - |
| 1787911503 | 23.33° C | 88% | 1024 hPa | - | - | - | - |
| 1787907905 | 23.89° C | 87% | 1024 hPa | - | - | - | - |
| 1787904305 | 23.89° C | 87% | 1024 hPa | - | - | - | - |
| 1787864705 | 29.44° C | 67% | 1024 hPa | - | - | - | - |
| 1787861104 | 30° C | 65% | 1024 hPa | - | - | - | - |
| 1787857504 | 30° C | 64% | 1024 hPa | - | - | - | - |
| 1787853903 | 30° C | 63% | 1024 hPa | - | - | - | - |
| 1787850304 | 30° C | 67% | 1024 hPa | - | - | - | - |
| 1787843103 | 28.33° C | 72% | 1024 hPa | - | - | - | - |
| 1787839504 | 27.22° C | 74% | 1024 hPa | - | - | - | - |
| 1787835904 | 25.56° C | 84% | 1024 hPa | - | - | - | - |
| 1787832303 | 25° C | 85% | 1024 hPa | - | - | - | - |
| 1787828705 | 23.33° C | 89% | 1024 hPa | - | - | - | - |
| 1787825105 | 22.78° C | 89% | 1024 hPa | - | - | - | - |
| 1787821504 | 23.33° C | 88% | 1024 hPa | - | - | - | - |
| 1787817905 | 23.33° C | 88% | 1024 hPa | - | - | - | - |
* Rain since midnight (hover to see other rain measurements)
** Current wind speed in m/s (hover to see current wind gust speed)